Bryan's Hourly Summary for Thursday, July 5, 2018
Hour Temp
(f)
RH
(%)
Solar Rad.
(MJ/m2)
Rainfall
(in)
Wind
(mph)
7/5/2018 12:00 AM 72 90 0 0 0.07
7/5/2018 1:00 AM 72 93 0 0 1.75
7/5/2018 2:00 AM 72 94 0 0 0
7/5/2018 3:00 AM 71 95 0 0 0.43
7/5/2018 4:00 AM 71 96 0 0 1.26
7/5/2018 5:00 AM 70 96 0 0 0.01
7/5/2018 6:00 AM 69 96 0 0 0
7/5/2018 7:00 AM 69 96 0.03 0 0
7/5/2018 8:00 AM 70 94 0.46 0 0.19
7/5/2018 9:00 AM 74 83 1.17 0 0.64
7/5/2018 10:00 AM 79 69 1.92 0 4.73
7/5/2018 11:00 AM 82 54 2.35 0 3.18
7/5/2018 12:00 PM 85 48 3.13 0 3.62
7/5/2018 1:00 PM 87 42 3.38 0 5.23
7/5/2018 2:00 PM 89 42 3.5 0 4.47
7/5/2018 3:00 PM 90 40 2.71 0 3.82
7/5/2018 4:00 PM 91 37 3.01 0 3.76
7/5/2018 5:00 PM 92 35 2.33 0 3.19
7/5/2018 6:00 PM 93 34 1.65 0 1.79
7/5/2018 7:00 PM 92 35 0.65 0 1.15
7/5/2018 8:00 PM 92 36 0.59 0 2.05
7/5/2018 9:00 PM 90 40 0.06 0 1.59
7/5/2018 10:00 PM 83 46 0 0.03 6.17
7/5/2018 11:00 PM 77 87 0 0 2.24
Data Summary 80 65 26.94 0.03 2.14